Time;durP1;ratioP1;P1;durP2;ratioP2;P2;SDS_P1;SDS_P2;PMS_P1;PMS_P2;Temp;Humidity;BMP_temperature;BMP_pressure;BME280_temperature;BME280_humidity;BME280_pressure;Samples;Min_cycle;Max_cycle;Signal;HPM_P1;HPM_P2
2023/03/18 00:01:40;;;;;;;;;97.00;71.00;;;;;-0.45;85.31;100068.91;6315480;20;3661741;-49
2023/03/18 00:04:10;;;;;;;;;101.33;75.33;;;;;-0.42;85.82;100060.09;6314985;20;3681506;-47
2023/03/18 00:06:39;;;;;;;;;95.33;77.00;;;;;-0.64;84.75;100059.44;6283006;20;2896159;-47
2023/03/18 00:09:11;;;;;;;;;101.67;75.33;;;;;-0.61;85.37;100061.16;6313753;20;3675258;-46
2023/03/18 00:11:40;;;;;;;;;101.33;84.33;;;;;-0.68;86.10;100063.00;6281751;20;3670155;-43
2023/03/18 00:14:10;;;;;;;;;107.33;80.33;;;;;-0.49;86.94;100058.41;6317194;20;3698194;-46
2023/03/18 00:16:40;;;;;;;;;106.00;85.33;;;;;-0.34;85.63;100052.97;6281876;20;3684644;-47
2023/03/18 00:19:10;;;;;;;;;93.00;69.00;;;;;-0.47;85.63;100057.50;6284958;20;3650354;-44
2023/03/18 00:21:40;;;;;;;;;107.00;88.33;;;;;-0.71;86.42;100047.19;6312196;20;3705510;-46
2023/03/18 00:24:11;;;;;;;;;107.00;90.33;;;;;-0.70;85.74;100046.31;6283199;20;3682507;-44
2023/03/18 00:26:41;;;;;;;;;103.67;79.67;;;;;-0.75;86.12;100045.50;6314311;20;3689835;-45
2023/03/18 00:29:10;;;;;;;;;92.33;71.33;;;;;-1.05;85.81;100039.63;6280082;20;2907579;-46
2023/03/18 00:31:40;;;;;;;;;97.67;72.00;;;;;-0.68;86.08;100036.63;6312898;20;3647200;-46
2023/03/18 00:34:10;;;;;;;;;98.67;75.00;;;;;-0.67;85.93;100033.97;6314496;20;3660667;-47
2023/03/18 00:36:41;;;;;;;;;94.00;74.67;;;;;-0.70;87.05;100034.00;6313936;20;3635672;-46
2023/03/18 00:39:12;;;;;;;;;104.33;77.00;;;;;-0.97;86.89;100029.88;6316621;20;3687743;-48
2023/03/18 00:41:41;;;;;;;;;105.00;80.33;;;;;-0.89;87.86;100027.19;6279025;20;3694009;-46
2023/03/18 00:44:13;;;;;;;;;99.67;72.67;;;;;-0.98;87.52;100024.63;6278063;20;3667964;-46
2023/03/18 00:46:43;;;;;;;;;101.33;72.33;;;;;-0.71;86.57;100021.72;6312392;20;3667041;-46
2023/03/18 00:49:13;;;;;;;;;95.67;72.00;;;;;-0.69;85.30;100030.47;6316066;20;3652532;-46
2023/03/18 00:51:42;;;;;;;;;92.33;68.33;;;;;-0.78;86.08;100027.94;6312929;20;3654513;-45
2023/03/18 00:54:17;;;;;;;;;102.33;79.00;;;;;-1.00;86.18;100015.84;6311270;20;3675388;-46
2023/03/18 00:56:47;;;;;;;;;103.67;81.33;;;;;-0.64;84.94;100011.09;6281015;20;3682580;-45
2023/03/18 00:59:17;;;;;;;;;93.00;72.00;;;;;-0.63;84.60;100024.28;6280373;20;2898326;-45
2023/03/18 01:01:47;;;;;;;;;96.67;72.67;;;;;-0.59;84.43;100017.19;6312400;20;3645112;-44
2023/03/18 01:04:17;;;;;;;;;103.67;73.33;;;;;-0.55;83.66;100018.94;6312871;20;3680477;-44
2023/03/18 01:06:47;;;;;;;;;96.33;70.33;;;;;-0.51;83.91;100007.44;6279754;20;3646124;-44
2023/03/18 01:09:16;;;;;;;;;93.00;70.33;;;;;-0.99;84.52;100010.56;6313006;20;3665969;-45
2023/03/18 01:11:46;;;;;;;;;85.33;67.67;;;;;-0.84;85.89;100014.84;6313590;20;2879664;-44
2023/03/18 01:14:14;;;;;;;;;80.00;62.00;;;;;-0.68;84.40;100005.88;6307452;20;2500446;-47
2023/03/18 01:16:43;;;;;;;;;85.00;64.00;;;;;-0.88;84.50;100013.09;6280434;20;2892973;-45
2023/03/18 01:19:14;;;;;;;;;86.00;65.67;;;;;-0.77;83.66;100005.94;6282102;20;2880573;-45
2023/03/18 01:21:45;;;;;;;;;105.33;76.33;;;;;-0.74;83.08;100005.94;6310196;20;3679532;-47
2023/03/18 01:24:14;;;;;;;;;98.33;71.67;;;;;-0.93;83.53;100007.00;6279716;20;3655484;-47
2023/03/18 01:26:44;;;;;;;;;101.00;84.00;;;;;-1.22;85.31;100002.88;6313158;20;3680494;-46
2023/03/18 01:29:14;;;;;;;;;94.67;71.00;;;;;-1.24;86.12;99998.50;6314783;20;2899375;-45
2023/03/18 01:31:44;;;;;;;;;98.67;72.33;;;;;-1.06;86.06;100000.09;6310452;20;3662738;-44
2023/03/18 01:34:15;;;;;;;;;91.00;69.67;;;;;-1.02;85.66;100000.06;6314735;20;2896236;-44
2023/03/18 01:36:45;;;;;;;;;98.67;76.00;;;;;-1.09;85.89;99997.50;6312802;20;3662755;-43
2023/03/18 01:39:16;;;;;;;;;103.00;81.67;;;;;-1.03;86.32;99997.44;6315077;20;3686732;-45
2023/03/18 01:41:47;;;;;;;;;105.67;83.67;;;;;-0.98;85.71;99993.00;6312149;20;3697168;-47
2023/03/18 01:44:22;;;;;;;;;98.33;73.67;;;;;-1.06;85.57;99997.47;6279610;20;3664907;-45
2023/03/18 01:46:53;;;;;;;;;100.33;73.33;;;;;-0.92;86.48;100001.72;6311372;20;3664865;-45
2023/03/18 01:49:41;;;;;;;;;96.67;71.00;;;;;-0.88;85.34;99992.00;6313724;20;3670089;-44
2023/03/18 01:52:25;;;;;;;;;92.33;67.00;;;;;-0.92;85.90;99991.19;6311509;20;3663822;-44
2023/03/18 01:55:03;;;;;;;;;89.67;63.67;;;;;-0.93;86.06;99992.06;6311160;20;3654592;-46
2023/03/18 01:57:34;;;;;;;;;94.33;69.33;;;;;-0.71;85.02;99995.38;6308215;20;2898315;-43
2023/03/18 02:00:06;;;;;;;;;89.67;68.00;;;;;-0.85;85.31;99991.97;6310778;20;3648170;-45
2023/03/18 02:02:42;;;;;;;;;90.00;67.33;;;;;-0.99;85.73;99999.16;6307156;20;3645069;-46
2023/03/18 02:05:18;;;;;;;;;86.67;67.67;;;;;-0.82;85.66;99991.94;6310105;20;2889879;-44
2023/03/18 02:07:48;;;;;;;;;89.33;68.00;;;;;-1.04;86.83;99990.44;6310381;20;2892091;-44
2023/03/18 02:10:26;;;;;;;;;91.00;68.67;;;;;-0.96;86.26;99993.84;6313679;20;2917117;-43
2023/03/18 02:13:06;;;;;;;;;88.00;65.67;;;;;-0.87;85.87;99983.22;6311370;20;2927523;-43
2023/03/18 02:16:05;;;;;;;;;80.50;60.50;;;;;-0.99;85.67;99978.94;6308006;20;2500414;-45
2023/03/18 02:18:44;;;;;;;;;87.00;65.00;;;;;-1.31;86.66;99978.38;6274861;20;2893056;-44
2023/03/18 02:21:45;;;;;;;;;82.00;64.50;;;;;-1.07;86.59;99974.66;6309027;20;2877435;-43
2023/03/18 02:24:56;;;;;;;;;84.00;63.00;;;;;-1.06;86.07;99989.56;6280326;20;2887846;-43
2023/03/18 02:27:34;;;;;;;;;83.00;63.00;;;;;-1.40;88.22;99979.31;6312899;20;2878486;-46
2023/03/18 02:30:22;;;;;;;;;88.67;65.00;;;;;-1.32;88.43;99972.22;6277251;20;3663784;-46
2023/03/18 02:32:54;;;;;;;;;87.33;64.67;;;;;-1.35;87.84;99972.25;6312071;20;2907642;-45
2023/03/18 02:35:27;;;;;;;;;82.67;63.00;;;;;-1.30;87.80;99973.09;6310103;20;3652394;-43
2023/03/18 02:37:55;;;;;;;;;82.00;62.00;;;;;-1.22;87.74;99960.72;6304504;20;2500400;-44
2023/03/18 02:40:33;;;;;;;;;83.00;65.00;;;;;-1.13;88.70;99963.28;6283290;20;2500345;-46
2023/03/18 02:43:41;;;;;;;;;79.50;61.00;;;;;-1.22;89.19;99965.13;6311828;20;2885702;-43
2023/03/18 02:46:46;;;;;;;;;86.00;67.00;;;;;-1.28;89.64;99958.16;6271947;20;2888979;-45
2023/03/18 02:49:18;;;;;;;;;86.67;62.67;;;;;-1.03;88.22;99955.28;6307030;20;3651375;-45
2023/03/18 02:51:49;;;;;;;;;82.00;62.00;;;;;-1.08;88.61;99968.47;6306210;20;2882605;-45
2023/03/18 02:54:28;;;;;;;;;86.33;62.00;;;;;-1.19;88.72;99959.81;6277354;20;2894702;-44
2023/03/18 02:56:57;;;;;;;;;77.50;59.50;;;;;-0.70;86.76;99959.31;6311638;20;2889888;-44
2023/03/18 02:59:27;;;;;;;;;76.50;61.00;;;;;-0.70;85.50;99965.47;6277345;20;2879655;-45
2023/03/18 03:01:57;;;;;;;;;86.67;63.33;;;;;-0.92;87.11;99963.97;6279756;20;3667988;-48
2023/03/18 03:04:27;;;;;;;;;82.67;61.33;;;;;-0.73;87.41;99960.22;6309392;20;2896202;-47
2023/03/18 03:06:57;;;;;;;;;76.50;62.00;;;;;-0.81;87.59;99956.81;6310001;20;2500378;-47
2023/03/18 03:09:24;;;;;;;;;77.50;57.00;;;;;-0.87;88.03;99964.75;6276375;20;2500390;-52
2023/03/18 03:11:53;;;;;;;;;78.50;62.00;;;;;-0.85;86.64;99968.25;6275489;20;2885671;-47
2023/03/18 03:14:21;;;;;;;;;79.00;58.00;;;;;-1.12;87.18;99964.16;6277422;20;2500318;-48
2023/03/18 03:16:50;;;;;;;;;73.00;55.50;;;;;-1.08;87.59;99959.72;6283119;20;2879473;-47
2023/03/18 03:19:20;;;;;;;;;70.67;47.33;;;;;-1.03;87.03;99956.13;6280961;20;2892046;-47
2023/03/18 03:21:48;;;;;;;;;68.00;57.00;;;;;-1.07;88.49;99959.72;6311690;20;2500267;-47
2023/03/18 03:24:15;;;;;;;;;75.00;58.00;;;;;-1.26;88.51;99959.03;6282182;20;2500534;-47
2023/03/18 03:26:43;;;;;;;;;76.00;57.00;;;;;-0.83;88.62;99968.25;6277403;20;2500345;-45
2023/03/18 03:29:11;;;;;;;;;81.00;59.00;;;;;-1.15;87.99;99965.06;6282106;20;2500288;-45
2023/03/18 03:31:41;;;;;;;;;83.67;60.33;;;;;-1.04;88.83;99964.94;6283902;20;2897240;-47
2023/03/18 03:34:09;;;;;;;;;75.00;52.50;;;;;-1.21;87.85;99962.47;6314100;20;2500217;-44
2023/03/18 03:36:38;;;;;;;;;77.50;59.00;;;;;-1.09;87.63;99976.41;6285148;20;2890879;-44
2023/03/18 03:39:06;;;;;;;;;77.00;60.50;;;;;-1.22;86.95;99984.44;6278552;20;2500327;-45
2023/03/18 03:41:34;;;;;;;;;71.00;54.50;;;;;-1.42;87.15;99994.25;6278346;20;2499275;-45
2023/03/18 03:44:02;;;;;;;;;70.50;53.50;;;;;-1.70;88.39;99993.59;6278700;20;2500277;-44
2023/03/18 03:46:31;;;;;;;;;68.50;53.50;;;;;-1.65;88.16;99997.09;6284887;20;2861767;-45
2023/03/18 03:48:59;;;;;;;;;69.00;55.50;;;;;-1.69;88.71;99998.84;6281865;20;2500294;-46
2023/03/18 03:51:28;;;;;;;;;65.50;50.50;;;;;-1.61;88.49;99999.66;6276163;20;2531612;-46
2023/03/18 03:53:56;;;;;;;;;75.50;58.50;;;;;-1.43;88.90;99998.66;6285749;20;2889979;-45
2023/03/18 03:56:24;;;;;;;;;59.00;46.00;;;;;-1.42;88.94;99999.50;6280262;20;2496157;-45
2023/03/18 03:58:52;;;;;;;;;63.50;52.00;;;;;-1.36;89.17;99992.47;6281336;20;2500251;-43
2023/03/18 04:01:20;;;;;;;;;69.50;54.00;;;;;-1.42;88.78;99989.88;6283756;20;2862936;-47
2023/03/18 04:03:48;;;;;;;;;66.50;52.50;;;;;-1.49;88.62;99996.06;6279313;20;2500290;-45
2023/03/18 04:06:17;;;;;;;;;61.33;48.00;;;;;-1.13;87.01;100000.16;6284388;20;3598217;-47
2023/03/18 04:08:45;;;;;;;;;58.50;46.50;;;;;-1.04;86.05;100000.97;6281041;20;2508705;-44
2023/03/18 04:11:14;;;;;;;;;63.00;49.50;;;;;-0.88;84.72;100002.56;6283356;20;2866906;-47
2023/03/18 04:13:42;;;;;;;;;63.50;48.50;;;;;-0.92;85.37;100001.72;6278294;20;2497148;-46
2023/03/18 04:16:11;;;;;;;;;67.00;48.50;;;;;-0.72;84.20;100005.91;6285492;20;2873188;-44
2023/03/18 04:18:40;;;;;;;;;62.50;47.50;;;;;-0.76;84.17;100013.00;6280746;20;2894012;-45
2023/03/18 04:21:09;;;;;;;;;61.00;46.67;;;;;-0.84;85.18;99999.00;6282930;20;3616351;-45
2023/03/18 04:23:38;;;;;;;;;71.00;52.00;;;;;-0.75;84.35;100004.19;6283713;20;2882599;-45
2023/03/18 04:26:06;;;;;;;;;67.50;51.00;;;;;-0.81;84.41;100006.03;6278402;20;2488386;-45
2023/03/18 04:28:34;;;;;;;;;71.50;51.50;;;;;-0.62;84.03;100009.34;6281509;20;2508674;-46
2023/03/18 04:31:03;;;;;;;;;72.50;56.00;;;;;-0.54;84.12;100002.19;6284389;20;2872170;-44
2023/03/18 04:33:33;;;;;;;;;70.33;56.00;;;;;-0.65;83.99;100009.38;6281994;20;2889944;-45
2023/03/18 04:36:00;;;;;;;;;65.00;49.00;;;;;-0.64;84.21;100011.09;6313318;20;2496224;-46
2023/03/18 04:38:29;;;;;;;;;71.50;53.50;;;;;-0.64;83.56;100011.09;6281289;20;2884677;-47
2023/03/18 04:40:59;;;;;;;;;82.33;59.33;;;;;-0.60;83.57;100010.19;6280987;20;2898684;-44
2023/03/18 04:43:27;;;;;;;;;69.00;54.00;;;;;-0.52;82.89;100016.25;6310421;20;2500325;-46
2023/03/18 04:45:55;;;;;;;;;72.00;55.00;;;;;-0.53;82.15;100030.31;6279245;20;2500362;-44
2023/03/18 04:48:24;;;;;;;;;68.00;53.00;;;;;-0.41;81.98;100024.91;6283250;20;2867037;-45
2023/03/18 04:50:53;;;;;;;;;70.50;52.50;;;;;-0.47;81.55;100025.00;6277998;20;2888814;-45
2023/03/18 04:53:23;;;;;;;;;72.00;50.33;;;;;-0.43;81.54;100029.31;6281858;20;2883663;-47
2023/03/18 04:55:52;;;;;;;;;66.00;52.50;;;;;-0.40;81.23;100028.41;6311644;20;2873192;-48
2023/03/18 04:58:20;;;;;;;;;67.50;50.00;;;;;-0.34;81.02;100030.97;6280031;20;2493115;-47
2023/03/18 05:00:48;;;;;;;;;65.00;52.00;;;;;-0.23;80.17;100029.97;6276425;20;2496680;-45
2023/03/18 05:03:15;;;;;;;;;62.00;48.00;;;;;-0.17;79.72;100036.06;6279566;20;2487993;-44
2023/03/18 05:05:44;;;;;;;;;54.33;46.00;;;;;-0.40;80.09;100039.84;6283028;20;3599289;-48
2023/03/18 05:08:13;;;;;;;;;57.00;47.50;;;;;-0.04;79.83;100042.94;6277873;20;2487786;-46
2023/03/18 05:10:42;;;;;;;;;63.00;47.33;;;;;-0.04;79.52;100045.56;6281861;20;2882576;-46
2023/03/18 05:13:12;;;;;;;;;58.67;43.33;;;;;0.03;79.37;100049.00;6310170;20;2885793;-47
2023/03/18 05:15:41;;;;;;;;;67.50;52.00;;;;;0.12;78.70;100049.75;6313619;20;2877350;-44
2023/03/18 05:18:11;;;;;;;;;78.00;60.00;;;;;0.24;78.70;100056.66;6283163;20;3639831;-48
2023/03/18 05:20:40;;;;;;;;;62.00;48.00;;;;;0.31;78.44;100055.66;6312166;20;2866995;-47
2023/03/18 05:23:09;;;;;;;;;57.00;43.33;;;;;0.42;77.75;100055.50;6284831;20;2872270;-44
2023/03/18 05:25:38;;;;;;;;;53.00;43.00;;;;;0.39;77.01;100056.41;6313495;20;2868131;-45
2023/03/18 05:28:05;;;;;;;;;46.00;41.00;;;;;0.40;76.71;100052.03;6280014;20;2493168;-49
2023/03/18 05:30:39;;;;;;;;;55.50;43.00;;;;;0.64;76.25;100058.72;6282622;20;2867000;-49
2023/03/18 05:33:06;;;;;;;;;38.50;30.50;;;;;0.59;76.05;100058.78;6282805;20;2842000;-45
2023/03/18 05:35:38;;;;;;;;;55.00;44.00;;;;;1.00;74.89;100057.25;6280955;20;2887841;-45
2023/03/18 05:38:06;;;;;;;;;61.50;46.00;;;;;1.72;73.00;100055.94;6312056;20;2872214;-45
2023/03/18 05:40:36;;;;;;;;;67.00;50.00;;;;;2.19;69.82;100062.06;6280729;20;2864899;-46
2023/03/18 05:43:06;;;;;;;;;81.00;56.00;;;;;2.23;68.87;100059.34;6280466;20;3647131;-47
2023/03/18 05:45:36;;;;;;;;;79.00;58.00;;;;;2.07;69.44;100066.72;6313740;20;3646107;-44
2023/03/18 05:48:09;;;;;;;;;72.67;56.67;;;;;1.85;70.61;100061.88;6314145;20;2880655;-46
2023/03/18 05:50:42;;;;;;;;;63.33;48.00;;;;;2.03;69.86;100065.94;6311266;20;2882718;-47
2023/03/18 05:53:12;;;;;;;;;47.50;44.50;;;;;2.60;68.09;100056.72;6313244;20;2849230;-45
2023/03/18 05:55:42;;;;;;;;;66.33;47.00;;;;;2.90;64.93;100067.50;6294140;20;3626315;-44
2023/03/18 05:58:11;;;;;;;;;56.00;45.00;;;;;3.15;62.94;100073.97;6312512;20;2839982;-46
2023/03/18 06:00:40;;;;;;;;;57.00;45.00;;;;;3.91;60.09;100072.84;6274135;20;2495067;-46
2023/03/18 06:03:08;;;;;;;;;53.50;46.00;;;;;5.73;54.75;100074.16;6277382;20;2499263;-45
2023/03/18 06:05:36;;;;;;;;;58.50;46.50;;;;;6.05;52.64;100074.81;6283492;20;2874269;-45
2023/03/18 06:08:04;;;;;;;;;34.00;30.50;;;;;8.92;45.67;100076.00;6280198;20;2500368;-47
2023/03/18 06:10:34;;;;;;;;;49.00;37.67;;;;;10.31;41.70;100082.25;6272553;20;2879564;-46
2023/03/18 06:13:03;;;;;;;;;48.67;38.67;;;;;10.53;40.02;100087.34;6311698;20;2871597;-49
2023/03/18 06:15:34;;;;;;;;;37.67;32.33;;;;;12.91;36.08;100100.06;6312712;20;2869221;-50
2023/03/18 06:18:03;;;;;;;;;41.67;35.67;;;;;14.85;32.31;100105.75;6311640;20;2863951;-46
2023/03/18 06:20:34;;;;;;;;;45.67;37.67;;;;;13.85;33.01;100110.06;6308649;20;3616936;-46
2023/03/18 06:23:04;;;;;;;;;37.00;33.50;;;;;12.15;35.07;100102.19;6311791;20;2846519;-47
2023/03/18 06:25:32;;;;;;;;;52.00;43.00;;;;;10.62;38.71;100091.34;6277140;20;2847135;-48
2023/03/18 06:28:03;;;;;;;;;38.33;32.67;;;;;11.37;37.53;100100.53;6279215;20;2861322;-48
2023/03/18 06:30:33;;;;;;;;;48.33;37.00;;;;;11.50;37.61;100100.66;6306410;20;2887855;-50
2023/03/18 06:33:02;;;;;;;;;39.67;29.67;;;;;11.87;37.32;100103.88;6314437;20;3626694;-55
2023/03/18 06:35:30;;;;;;;;;37.00;31.50;;;;;11.51;37.95;100113.16;6279042;20;2849248;-52
2023/03/18 06:38:01;;;;;;;;;39.00;35.67;;;;;11.24;36.97;100109.38;6281483;20;2865933;-45
2023/03/18 06:40:31;;;;;;;;;42.00;35.67;;;;;11.79;36.40;100112.38;6306989;20;2864923;-46
2023/03/18 06:43:00;;;;;;;;;40.67;36.00;;;;;11.94;35.68;100116.00;6312034;20;3614864;-47
2023/03/18 06:45:30;;;;;;;;;40.00;35.33;;;;;15.43;31.06;100123.13;6308016;20;2868171;-52
2023/03/18 06:47:59;;;;;;;;;41.33;35.00;;;;;14.73;32.56;100125.56;6310945;20;3609678;-47
2023/03/18 06:50:30;;;;;;;;;44.67;34.00;;;;;14.36;33.65;100120.06;6277076;20;3626334;-52
2023/03/18 06:52:59;;;;;;;;;41.67;33.00;;;;;14.79;30.93;100120.56;6312712;20;3616922;-50
2023/03/18 06:55:28;;;;;;;;;42.50;35.00;;;;;16.86;28.92;100137.31;6278302;20;2862820;-49
2023/03/18 06:57:59;;;;;;;;;46.67;36.00;;;;;15.15;30.52;100130.56;6277423;20;3611800;-47
2023/03/18 07:00:28;;;;;;;;;38.67;33.67;;;;;16.28;29.70;100135.66;6310088;20;3598220;-48
2023/03/18 07:02:58;;;;;;;;;43.67;36.00;;;;;14.13;32.46;100136.00;6278453;20;2865906;-47
2023/03/18 07:05:28;;;;;;;;;38.67;32.67;;;;;15.75;30.72;100134.25;6313631;20;3610729;-54
2023/03/18 07:07:57;;;;;;;;;45.00;34.00;;;;;15.43;30.00;100136.66;6293178;20;3618987;-51
2023/03/18 07:10:29;;;;;;;;;39.00;33.67;;;;;15.51;29.76;100141.50;6280600;20;3613962;-52
2023/03/18 07:12:59;;;;;;;;;35.33;32.33;;;;;16.28;29.18;100147.34;6279599;20;3602386;-45
2023/03/18 07:15:27;;;;;;;;;39.00;32.00;;;;;16.94;28.47;100144.00;6311376;20;2849264;-49
2023/03/18 07:17:59;;;;;;;;;45.50;37.00;;;;;17.01;28.58;100145.19;6275747;20;2848220;-48
2023/03/18 07:20:28;;;;;;;;;37.67;32.33;;;;;16.38;28.67;100147.50;6280740;20;2860758;-44
2023/03/18 07:22:58;;;;;;;;;31.00;30.67;;;;;14.83;30.58;100145.56;6313806;20;3594061;-50
2023/03/18 07:25:28;;;;;;;;;45.00;35.67;;;;;8.53;42.57;100134.03;6279148;20;3630543;-51
2023/03/18 07:27:59;;;;;;;;;45.33;36.67;;;;;7.70;45.85;100123.44;6312309;20;3624266;-47
2023/03/18 07:30:29;;;;;;;;;43.00;35.00;;;;;7.28;47.75;100123.44;6280351;20;3612776;-47
2023/03/18 07:32:59;;;;;;;;;40.33;34.33;;;;;7.26;47.77;100132.34;6309392;20;3624247;-46
2023/03/18 07:35:27;;;;;;;;;39.00;36.50;;;;;7.81;46.97;100133.66;6309989;20;2867038;-45
2023/03/18 07:37:57;;;;;;;;;46.00;38.00;;;;;7.18;49.34;100129.13;6281050;20;2875381;-45
2023/03/18 07:40:27;;;;;;;;;40.00;35.33;;;;;7.91;48.57;100145.69;6311184;20;2859732;-45
2023/03/18 07:42:55;;;;;;;;;52.50;41.00;;;;;7.50;48.07;100142.97;6309979;20;2857662;-45
2023/03/18 07:45:24;;;;;;;;;41.00;35.50;;;;;7.91;48.90;100146.56;6275775;20;2867101;-45
2023/03/18 07:47:54;;;;;;;;;41.67;35.67;;;;;7.73;48.36;100144.66;6279800;20;2855533;-50
2023/03/18 07:50:23;;;;;;;;;92.25;79.00;;;;;8.04;48.69;100146.91;6309723;20;4430449;-46
2023/03/18 07:52:52;;;;;;;;;42.50;35.00;;;;;8.35;47.67;100148.22;6310063;20;2860054;-45
2023/03/18 07:55:21;;;;;;;;;40.50;34.50;;;;;7.96;46.94;100143.69;6280485;20;2854540;-48
2023/03/18 07:57:50;;;;;;;;;36.50;34.00;;;;;8.38;46.45;100150.75;6279269;20;2856593;-47
2023/03/18 08:00:21;;;;;;;;;58.00;47.50;;;;;9.00;46.26;100155.06;6280459;20;2862822;-45
2023/03/18 08:02:49;;;;;;;;;44.50;37.50;;;;;8.79;46.27;100156.94;6283776;20;2872184;-45
2023/03/18 08:05:18;;;;;;;;;20.00;20.00;;;;;9.02;46.79;100152.28;6286682;20;2835833;-45
2023/03/18 08:07:47;;;;;;;;;35.50;34.00;;;;;8.96;45.38;100153.44;6285763;20;2852417;-46
2023/03/18 08:10:16;;;;;;;;;41.50;36.00;;;;;8.54;46.55;100151.81;6286701;20;2864863;-44
2023/03/18 08:12:46;;;;;;;;;44.33;34.00;;;;;9.00;46.53;100148.78;6285708;20;2882880;-47
2023/03/18 08:15:22;;;;;;;;;42.00;35.00;;;;;8.33;47.00;100147.41;6315107;20;2852366;-48
2023/03/18 08:17:52;;;;;;;;;35.00;32.67;;;;;8.99;45.37;100150.63;6318790;20;3597142;-45
2023/03/18 08:20:21;;;;;;;;;79.00;61.00;;;;;9.06;45.23;100153.00;6282576;20;2785768;-46
2023/03/18 08:22:51;;;;;;;;;58.33;44.67;;;;;8.68;46.25;100155.66;6316983;20;3626451;-43
2023/03/18 08:25:22;;;;;;;;;41.33;36.67;;;;;9.25;45.23;100155.66;6315038;20;3605489;-46
2023/03/18 08:27:52;;;;;;;;;65.00;50.33;;;;;9.96;45.15;100153.00;6316554;20;2875334;-44
2023/03/18 08:30:24;;;;;;;;;50.00;40.50;;;;;9.88;44.03;100148.91;6314366;20;2852777;-45
2023/03/18 08:32:54;;;;;;;;;37.00;33.00;;;;;9.58;45.08;100150.44;6286118;20;2852394;-46
2023/03/18 08:35:24;;;;;;;;;36.67;31.33;;;;;9.06;45.92;100153.88;6282401;20;3614887;-46
2023/03/18 08:37:55;;;;;;;;;29.00;29.00;;;;;9.38;45.63;100148.78;6317391;20;3589842;-44
2023/03/18 08:40:24;;;;;;;;;50.00;41.50;;;;;9.61;46.12;100150.28;6282526;20;2857559;-45
2023/03/18 08:42:54;;;;;;;;;37.00;35.00;;;;;10.01;45.55;100134.88;6282247;20;2857599;-45
2023/03/18 08:45:26;;;;;;;;;75.33;57.67;;;;;9.81;45.22;100152.84;6311938;20;3628406;-45
2023/03/18 08:47:55;;;;;;;;;47.00;38.33;;;;;10.00;44.93;100158.13;6313812;20;3596184;-44
2023/03/18 08:50:28;;;;;;;;;45.00;36.33;;;;;10.40;44.32;100155.19;6311452;20;3628401;-44
2023/03/18 08:52:59;;;;;;;;;43.00;33.00;;;;;9.65;44.57;100151.88;6318585;20;3609640;-43
2023/03/18 08:55:38;;;;;;;;;37.00;28.33;;;;;10.35;46.12;100143.81;6283707;20;3621129;-44
2023/03/18 08:58:08;;;;;;;;;40.00;35.33;;;;;10.33;45.27;100152.84;6317010;20;3612773;-44
2023/03/18 09:00:41;;;;;;;;;53.33;42.67;;;;;10.66;44.06;100141.22;6281581;20;2861815;-45
2023/03/18 09:03:12;;;;;;;;;53.33;41.67;;;;;9.93;44.25;100139.75;6313450;20;3610723;-46
2023/03/18 09:05:42;;;;;;;;;42.67;35.00;;;;;10.60;43.38;100144.25;6314383;20;3614863;-46
2023/03/18 09:08:12;;;;;;;;;43.33;37.00;;;;;10.89;43.29;100147.16;6315407;20;3601366;-43
2023/03/18 09:10:41;;;;;;;;;42.50;34.50;;;;;10.84;44.95;100141.19;6282937;20;2856540;-46
2023/03/18 09:13:09;;;;;;;;;34.50;31.50;;;;;9.89;43.69;100145.25;6279753;20;2853415;-43
2023/03/18 09:15:41;;;;;;;;;40.67;34.33;;;;;9.98;44.79;100133.22;6281192;20;2865955;-43
2023/03/18 09:18:09;;;;;;;;;41.00;35.50;;;;;10.24;44.50;100128.25;6315723;20;2850305;-44
2023/03/18 09:20:41;;;;;;;;;43.00;37.00;;;;;10.97;41.98;100128.78;6282931;20;2844066;-44
2023/03/18 09:23:11;;;;;;;;;23.00;19.00;;;;;10.54;42.95;100134.72;6281624;20;2492009;-43
2023/03/18 09:25:43;;;;;;;;;37.67;32.00;;;;;9.84;45.04;100141.09;6284565;20;3604490;-46
2023/03/18 09:28:14;;;;;;;;;43.00;35.00;;;;;10.69;43.57;100135.72;6314530;20;3623208;-47
2023/03/18 09:30:43;;;;;;;;;72.33;57.00;;;;;11.10;42.84;100129.84;6316718;20;3636794;-44
2023/03/18 09:33:12;;;;;;;;;58.33;45.33;;;;;11.41;41.37;100138.84;6282365;20;3621106;-44
2023/03/18 09:35:42;;;;;;;;;65.00;50.67;;;;;11.45;41.37;100135.00;6312755;20;3622379;-46
2023/03/18 09:38:18;;;;;;;;;79.00;63.00;;;;;11.44;41.68;100133.28;6282960;20;3645104;-46
2023/03/18 09:41:15;;;;;;;;;75.00;56.00;;;;;11.30;41.95;100133.22;6280116;20;3644141;-49
2023/03/18 09:44:13;;;;;;;;;35.67;33.00;;;;;11.02;42.21;100131.22;6312385;20;3601356;-49
2023/03/18 09:47:35;;;;;;;;;55.50;45.00;;;;;11.22;41.03;100128.28;6281924;20;2869021;-49
2023/03/18 09:50:49;;;;;;;;;71.67;55.67;;;;;10.94;41.26;100119.09;6278379;20;3628376;-49
2023/03/18 09:53:41;;;;;;;;;39.50;31.50;;;;;11.47;41.35;100122.34;6311303;20;2855519;-45
2023/03/18 09:56:23;;;;;;;;;60.00;46.75;;;;;11.48;41.15;100121.41;6279660;20;3628447;-47
2023/03/18 09:59:16;;;;;;;;;32.67;31.00;;;;;10.55;41.36;100117.66;6310528;20;3597245;-43
2023/03/18 10:01:53;;;;;;;;;160.00;125.75;;;;;11.42;41.37;100117.22;6281323;20;4493981;-44
2023/03/18 10:04:43;;;;;;;;;51.33;40.00;;;;;11.51;41.04;100114.97;6279817;20;2867032;-45
2023/03/18 10:07:17;;;;;;;;;44.33;36.33;;;;;11.48;41.42;100113.34;6315650;20;3603561;-46
2023/03/18 10:09:55;;;;;;;;;47.00;36.00;;;;;11.62;40.45;100110.69;6279705;20;3609670;-45
2023/03/18 10:12:45;;;;;;;;;70.33;53.67;;;;;12.49;39.36;100112.59;6310176;20;3641923;-45
2023/03/18 10:15:40;;;;;;;;;33.33;31.00;;;;;12.14;38.70;100113.91;6286518;20;3582553;-44
2023/03/18 10:18:33;;;;;;;;;74.00;59.33;;;;;11.74;39.00;100100.16;6280073;20;3623203;-47
2023/03/18 10:21:30;;;;;;;;;107.67;97.67;;;;;11.75;39.46;100113.53;6308104;20;3689884;-47
2023/03/18 10:24:26;;;;;;;;;59.67;48.00;;;;;12.36;40.28;100114.34;6276986;20;3620161;-46
2023/03/18 10:27:50;;;;;;;;;36.00;32.67;;;;;12.14;39.59;100111.22;6314590;20;3585715;-46
2023/03/18 10:30:53;;;;;;;;;60.67;46.67;;;;;12.43;40.12;100102.22;6276264;20;3641998;-45
2023/03/18 10:33:55;;;;;;;;;44.33;34.00;;;;;11.94;39.74;100099.84;6309343;20;3629835;-44
2023/03/18 10:36:38;;;;;;;;;38.00;33.50;;;;;12.71;38.92;100105.84;6309847;20;2852398;-44
2023/03/18 10:39:21;;;;;;;;;33.00;26.00;;;;;12.67;40.02;100109.72;6279721;20;3604798;-44
2023/03/18 10:41:54;;;;;;;;;26.67;24.67;;;;;12.77;39.92;100105.47;6311794;20;3588840;-45
2023/03/18 10:44:36;;;;;;;;;22.00;16.67;;;;;12.99;39.73;100104.09;6278226;20;2835818;-46
2023/03/18 10:47:19;;;;;;;;;23.67;22.67;;;;;13.04;38.34;100102.81;6310322;20;3580458;-48
2023/03/18 10:50:46;;;;;;;;;33.33;29.00;;;;;13.24;38.67;100098.81;6311713;20;3600259;-46
2023/03/18 10:53:26;;;;;;;;;30.67;22.00;;;;;12.87;38.14;100093.13;6280242;20;3610675;-44
2023/03/18 10:56:04;;;;;;;;;32.00;29.33;;;;;13.22;38.92;100089.09;6314712;20;3612860;-49
2023/03/18 10:58:35;;;;;;;;;29.67;28.00;;;;;13.44;38.27;100091.28;6283398;20;2855701;-45
2023/03/18 11:01:09;;;;;;;;;30.00;25.00;;;;;13.38;37.59;100089.84;6310099;20;3601467;-47
2023/03/18 11:03:57;;;;;;;;;21.00;21.00;;;;;13.33;39.20;100081.22;6277940;20;2500286;-48
2023/03/18 11:06:54;;;;;;;;;26.00;21.50;;;;;13.34;40.25;100078.38;6278331;20;2854482;-47
2023/03/18 11:09:31;;;;;;;;;19.00;19.00;;;;;13.41;40.50;100078.00;6277038;20;2500303;-45
2023/03/18 11:12:12;;;;;;;;;17.50;17.50;;;;;13.60;40.50;100078.47;6281055;20;2835873;-47
2023/03/18 11:14:41;;;;;;;;;20.00;20.00;;;;;13.54;39.98;100071.66;6277682;20;2834799;-46
2023/03/18 11:17:34;;;;;;;;;19.00;19.00;;;;;13.91;39.97;100065.59;6277654;20;2834684;-47
2023/03/18 11:20:23;;;;;;;;;25.00;24.00;;;;;13.28;40.49;100068.03;6277369;20;2852361;-44
2023/03/18 11:22:56;;;;;;;;;21.67;20.33;;;;;13.26;40.36;100056.47;6274307;20;2837792;-47
2023/03/18 11:25:28;;;;;;;;;25.33;24.33;;;;;14.02;41.08;100054.91;6312132;20;3582552;-49